sensor_id;sensor_type;location;lat;lon;timestamp;P1;durP1;ratioP1;P2;durP2;ratioP2
6832;SDS011;3454;42.654;23.378;2022-08-18T00:02:09;5.55;;;4.38;;
6832;SDS011;3454;42.654;23.378;2022-08-18T00:04:41;6.18;;;4.35;;
6832;SDS011;3454;42.654;23.378;2022-08-18T00:07:08;4.75;;;4.25;;
6832;SDS011;3454;42.654;23.378;2022-08-18T00:09:39;4.50;;;4.03;;
6832;SDS011;3454;42.654;23.378;2022-08-18T00:12:11;6.85;;;4.13;;
6832;SDS011;3454;42.654;23.378;2022-08-18T00:14:40;6.45;;;4.70;;
6832;SDS011;3454;42.654;23.378;2022-08-18T00:17:06;4.85;;;4.32;;
6832;SDS011;3454;42.654;23.378;2022-08-18T00:19:31;5.72;;;3.97;;
6832;SDS011;3454;42.654;23.378;2022-08-18T00:21:57;6.97;;;4.68;;
6832;SDS011;3454;42.654;23.378;2022-08-18T00:24:23;4.78;;;4.30;;
6832;SDS011;3454;42.654;23.378;2022-08-18T00:26:49;7.10;;;4.30;;
6832;SDS011;3454;42.654;23.378;2022-08-18T00:29:14;5.32;;;4.18;;
6832;SDS011;3454;42.654;23.378;2022-08-18T00:31:40;4.05;;;3.65;;
6832;SDS011;3454;42.654;23.378;2022-08-18T00:34:05;6.47;;;4.30;;
6832;SDS011;3454;42.654;23.378;2022-08-18T00:36:31;6.15;;;3.55;;
6832;SDS011;3454;42.654;23.378;2022-08-18T00:38:58;6.32;;;4.15;;
6832;SDS011;3454;42.654;23.378;2022-08-18T00:41:24;4.50;;;4.10;;
6832;SDS011;3454;42.654;23.378;2022-08-18T00:43:51;5.70;;;3.90;;
6832;SDS011;3454;42.654;23.378;2022-08-18T00:46:22;4.95;;;4.10;;
6832;SDS011;3454;42.654;23.378;2022-08-18T00:48:50;5.35;;;4.38;;
6832;SDS011;3454;42.654;23.378;2022-08-18T00:54:11;7.85;;;4.70;;
6832;SDS011;3454;42.654;23.378;2022-08-18T00:56:44;6.13;;;4.53;;
6832;SDS011;3454;42.654;23.378;2022-08-18T00:59:27;5.43;;;4.18;;
6832;SDS011;3454;42.654;23.378;2022-08-18T01:01:53;8.27;;;4.82;;
6832;SDS011;3454;42.654;23.378;2022-08-18T01:04:49;6.82;;;4.70;;
6832;SDS011;3454;42.654;23.378;2022-08-18T01:07:24;5.68;;;4.40;;
6832;SDS011;3454;42.654;23.378;2022-08-18T01:09:54;4.82;;;4.32;;
6832;SDS011;3454;42.654;23.378;2022-08-18T01:12:23;6.32;;;4.80;;
6832;SDS011;3454;42.654;23.378;2022-08-18T01:14:50;7.38;;;5.03;;
6832;SDS011;3454;42.654;23.378;2022-08-18T01:17:17;4.93;;;4.40;;
6832;SDS011;3454;42.654;23.378;2022-08-18T01:20:01;9.65;;;4.28;;
6832;SDS011;3454;42.654;23.378;2022-08-18T01:25:57;5.20;;;4.35;;
6832;SDS011;3454;42.654;23.378;2022-08-18T01:28:36;4.68;;;4.22;;
6832;SDS011;3454;42.654;23.378;2022-08-18T01:31:04;4.82;;;4.43;;
6832;SDS011;3454;42.654;23.378;2022-08-18T01:33:32;5.55;;;4.55;;
6832;SDS011;3454;42.654;23.378;2022-08-18T01:36:12;5.85;;;4.50;;
6832;SDS011;3454;42.654;23.378;2022-08-18T01:38:49;4.80;;;4.28;;
6832;SDS011;3454;42.654;23.378;2022-08-18T01:41:18;7.82;;;4.78;;
6832;SDS011;3454;42.654;23.378;2022-08-18T01:43:44;6.28;;;4.35;;
6832;SDS011;3454;42.654;23.378;2022-08-18T01:46:10;6.43;;;5.03;;
6832;SDS011;3454;42.654;23.378;2022-08-18T01:48:36;7.93;;;5.45;;
6832;SDS011;3454;42.654;23.378;2022-08-18T01:51:03;5.82;;;4.65;;
6832;SDS011;3454;42.654;23.378;2022-08-18T01:53:32;6.22;;;5.10;;
6832;SDS011;3454;42.654;23.378;2022-08-18T01:55:58;8.20;;;5.50;;
6832;SDS011;3454;42.654;23.378;2022-08-18T01:58:23;8.23;;;5.20;;
6832;SDS011;3454;42.654;23.378;2022-08-18T02:00:55;6.20;;;4.70;;
6832;SDS011;3454;42.654;23.378;2022-08-18T02:03:24;7.93;;;5.00;;
6832;SDS011;3454;42.654;23.378;2022-08-18T02:05:54;8.55;;;4.93;;
6832;SDS011;3454;42.654;23.378;2022-08-18T02:08:24;7.28;;;4.97;;
6832;SDS011;3454;42.654;23.378;2022-08-18T02:10:50;5.82;;;4.90;;
6832;SDS011;3454;42.654;23.378;2022-08-18T02:13:16;13.15;;;5.07;;
6832;SDS011;3454;42.654;23.378;2022-08-18T02:15:42;7.28;;;5.38;;
6832;SDS011;3454;42.654;23.378;2022-08-18T02:18:18;7.28;;;5.00;;
6832;SDS011;3454;42.654;23.378;2022-08-18T02:20:47;5.40;;;4.90;;
6832;SDS011;3454;42.654;23.378;2022-08-18T02:23:14;6.20;;;5.05;;
6832;SDS011;3454;42.654;23.378;2022-08-18T02:25:40;8.18;;;5.40;;
6832;SDS011;3454;42.654;23.378;2022-08-18T02:28:07;7.78;;;5.25;;
6832;SDS011;3454;42.654;23.378;2022-08-18T02:30:33;5.20;;;4.68;;
6832;SDS011;3454;42.654;23.378;2022-08-18T02:33:02;5.57;;;4.82;;
6832;SDS011;3454;42.654;23.378;2022-08-18T02:35:28;8.60;;;5.25;;
6832;SDS011;3454;42.654;23.378;2022-08-18T02:37:57;8.10;;;5.32;;
6832;SDS011;3454;42.654;23.378;2022-08-18T02:40:25;9.15;;;6.03;;
6832;SDS011;3454;42.654;23.378;2022-08-18T02:42:52;9.18;;;5.18;;
6832;SDS011;3454;42.654;23.378;2022-08-18T02:45:18;7.55;;;5.30;;
6832;SDS011;3454;42.654;23.378;2022-08-18T02:47:44;6.60;;;5.57;;
6832;SDS011;3454;42.654;23.378;2022-08-18T02:50:15;10.40;;;5.43;;
6832;SDS011;3454;42.654;23.378;2022-08-18T02:52:41;5.93;;;5.18;;
6832;SDS011;3454;42.654;23.378;2022-08-18T02:55:06;5.80;;;5.20;;
6832;SDS011;3454;42.654;23.378;2022-08-18T02:57:33;6.55;;;4.90;;
6832;SDS011;3454;42.654;23.378;2022-08-18T02:59:59;7.45;;;4.95;;
6832;SDS011;3454;42.654;23.378;2022-08-18T03:02:24;8.73;;;5.07;;
6832;SDS011;3454;42.654;23.378;2022-08-18T03:04:49;6.20;;;5.18;;
6832;SDS011;3454;42.654;23.378;2022-08-18T03:07:15;6.60;;;5.47;;
6832;SDS011;3454;42.654;23.378;2022-08-18T03:09:41;8.82;;;5.47;;
6832;SDS011;3454;42.654;23.378;2022-08-18T03:12:07;5.53;;;5.00;;
6832;SDS011;3454;42.654;23.378;2022-08-18T03:14:34;6.28;;;5.68;;
6832;SDS011;3454;42.654;23.378;2022-08-18T03:17:02;6.97;;;5.18;;
6832;SDS011;3454;42.654;23.378;2022-08-18T03:19:30;8.05;;;5.18;;
6832;SDS011;3454;42.654;23.378;2022-08-18T03:21:56;8.73;;;5.93;;
6832;SDS011;3454;42.654;23.378;2022-08-18T03:24:24;6.05;;;5.45;;
6832;SDS011;3454;42.654;23.378;2022-08-18T03:26:50;5.85;;;5.20;;
6832;SDS011;3454;42.654;23.378;2022-08-18T03:29:17;6.57;;;5.15;;
6832;SDS011;3454;42.654;23.378;2022-08-18T03:31:42;6.28;;;5.68;;
6832;SDS011;3454;42.654;23.378;2022-08-18T03:34:09;6.30;;;5.70;;
6832;SDS011;3454;42.654;23.378;2022-08-18T03:36:35;8.00;;;5.53;;
6832;SDS011;3454;42.654;23.378;2022-08-18T03:39:06;9.43;;;5.55;;
6832;SDS011;3454;42.654;23.378;2022-08-18T03:41:33;8.13;;;6.00;;
6832;SDS011;3454;42.654;23.378;2022-08-18T03:44:01;10.35;;;6.45;;
6832;SDS011;3454;42.654;23.378;2022-08-18T03:46:28;13.57;;;6.95;;
6832;SDS011;3454;42.654;23.378;2022-08-18T03:48:54;11.38;;;6.50;;
6832;SDS011;3454;42.654;23.378;2022-08-18T03:51:23;7.82;;;5.88;;
6832;SDS011;3454;42.654;23.378;2022-08-18T03:53:55;12.45;;;5.82;;
6832;SDS011;3454;42.654;23.378;2022-08-18T03:56:27;9.55;;;6.25;;
6832;SDS011;3454;42.654;23.378;2022-08-18T03:58:58;7.70;;;5.13;;
6832;SDS011;3454;42.654;23.378;2022-08-18T04:01:28;10.70;;;6.38;;
6832;SDS011;3454;42.654;23.378;2022-08-18T04:03:57;7.45;;;6.30;;
6832;SDS011;3454;42.654;23.378;2022-08-18T04:06:35;8.40;;;6.25;;
6832;SDS011;3454;42.654;23.378;2022-08-18T04:09:04;12.27;;;6.82;;
6832;SDS011;3454;42.654;23.378;2022-08-18T04:11:33;6.95;;;6.20;;
6832;SDS011;3454;42.654;23.378;2022-08-18T04:13:59;9.85;;;6.05;;
6832;SDS011;3454;42.654;23.378;2022-08-18T04:16:26;7.22;;;6.05;;
6832;SDS011;3454;42.654;23.378;2022-08-18T04:18:53;7.85;;;5.97;;
6832;SDS011;3454;42.654;23.378;2022-08-18T04:21:21;9.93;;;6.15;;
6832;SDS011;3454;42.654;23.378;2022-08-18T04:23:48;7.15;;;5.78;;
6832;SDS011;3454;42.654;23.378;2022-08-18T04:26:13;9.05;;;6.25;;
6832;SDS011;3454;42.654;23.378;2022-08-18T04:28:39;6.95;;;5.40;;
6832;SDS011;3454;42.654;23.378;2022-08-18T04:31:10;6.72;;;5.72;;
6832;SDS011;3454;42.654;23.378;2022-08-18T04:33:37;6.45;;;5.45;;
6832;SDS011;3454;42.654;23.378;2022-08-18T04:36:07;5.95;;;5.20;;
6832;SDS011;3454;42.654;23.378;2022-08-18T04:38:38;13.02;;;6.30;;
6832;SDS011;3454;42.654;23.378;2022-08-18T04:41:08;7.30;;;6.40;;
6832;SDS011;3454;42.654;23.378;2022-08-18T04:43:39;9.00;;;6.45;;
6832;SDS011;3454;42.654;23.378;2022-08-18T04:46:05;7.38;;;5.95;;
6832;SDS011;3454;42.654;23.378;2022-08-18T04:48:34;11.82;;;6.22;;
6832;SDS011;3454;42.654;23.378;2022-08-18T04:51:04;7.55;;;5.53;;
6832;SDS011;3454;42.654;23.378;2022-08-18T04:53:37;8.75;;;6.95;;
6832;SDS011;3454;42.654;23.378;2022-08-18T04:56:33;9.90;;;7.13;;
6832;SDS011;3454;42.654;23.378;2022-08-18T05:01:29;12.45;;;6.43;;
6832;SDS011;3454;42.654;23.378;2022-08-18T05:03:58;8.43;;;6.63;;
6832;SDS011;3454;42.654;23.378;2022-08-18T05:06:25;7.32;;;6.50;;
6832;SDS011;3454;42.654;23.378;2022-08-18T05:08:53;12.43;;;7.28;;
6832;SDS011;3454;42.654;23.378;2022-08-18T05:11:21;9.25;;;7.18;;
6832;SDS011;3454;42.654;23.378;2022-08-18T05:13:52;11.63;;;8.32;;
6832;SDS011;3454;42.654;23.378;2022-08-18T05:16:22;14.23;;;8.93;;
6832;SDS011;3454;42.654;23.378;2022-08-18T05:18:49;13.43;;;9.07;;
6832;SDS011;3454;42.654;23.378;2022-08-18T05:21:15;16.95;;;10.45;;
6832;SDS011;3454;42.654;23.378;2022-08-18T05:23:41;29.77;;;14.27;;
6832;SDS011;3454;42.654;23.378;2022-08-18T05:26:09;19.15;;;12.90;;
6832;SDS011;3454;42.654;23.378;2022-08-18T05:28:38;17.15;;;10.10;;
6832;SDS011;3454;42.654;23.378;2022-08-18T05:31:05;14.68;;;9.40;;
6832;SDS011;3454;42.654;23.378;2022-08-18T05:33:32;14.75;;;9.00;;
6832;SDS011;3454;42.654;23.378;2022-08-18T05:36:00;17.00;;;8.27;;
6832;SDS011;3454;42.654;23.378;2022-08-18T05:41:10;15.23;;;8.05;;
6832;SDS011;3454;42.654;23.378;2022-08-18T05:43:43;10.65;;;7.25;;
6832;SDS011;3454;42.654;23.378;2022-08-18T05:46:11;9.27;;;6.55;;
6832;SDS011;3454;42.654;23.378;2022-08-18T05:48:36;7.20;;;5.95;;
6832;SDS011;3454;42.654;23.378;2022-08-18T05:51:09;10.07;;;7.22;;
6832;SDS011;3454;42.654;23.378;2022-08-18T05:53:40;8.13;;;6.55;;
6832;SDS011;3454;42.654;23.378;2022-08-18T05:56:26;12.13;;;7.30;;
6832;SDS011;3454;42.654;23.378;2022-08-18T05:59:11;10.48;;;7.00;;
6832;SDS011;3454;42.654;23.378;2022-08-18T06:01:42;14.00;;;6.63;;
6832;SDS011;3454;42.654;23.378;2022-08-18T06:04:15;10.35;;;7.57;;
6832;SDS011;3454;42.654;23.378;2022-08-18T06:06:43;8.77;;;7.05;;
6832;SDS011;3454;42.654;23.378;2022-08-18T06:09:22;9.43;;;6.78;;
6832;SDS011;3454;42.654;23.378;2022-08-18T06:14:48;14.27;;;8.35;;
6832;SDS011;3454;42.654;23.378;2022-08-18T06:20:29;9.75;;;8.43;;
6832;SDS011;3454;42.654;23.378;2022-08-18T06:28:53;12.10;;;8.07;;
6832;SDS011;3454;42.654;23.378;2022-08-18T06:31:38;11.75;;;8.25;;
6832;SDS011;3454;42.654;23.378;2022-08-18T06:34:24;13.48;;;8.35;;
6832;SDS011;3454;42.654;23.378;2022-08-18T06:37:09;8.57;;;7.55;;
6832;SDS011;3454;42.654;23.378;2022-08-18T06:39:56;11.63;;;8.13;;
6832;SDS011;3454;42.654;23.378;2022-08-18T06:42:23;17.67;;;8.07;;
6832;SDS011;3454;42.654;23.378;2022-08-18T06:44:56;10.98;;;8.40;;
6832;SDS011;3454;42.654;23.378;2022-08-18T06:55:31;13.07;;;7.50;;
6832;SDS011;3454;42.654;23.378;2022-08-18T06:58:32;11.50;;;7.07;;
6832;SDS011;3454;42.654;23.378;2022-08-18T07:00:55;10.15;;;7.55;;
6832;SDS011;3454;42.654;23.378;2022-08-18T07:08:31;9.25;;;7.20;;
6832;SDS011;3454;42.654;23.378;2022-08-18T07:11:09;14.13;;;6.93;;
6832;SDS011;3454;42.654;23.378;2022-08-18T07:13:50;12.52;;;7.70;;
6832;SDS011;3454;42.654;23.378;2022-08-18T07:18:53;10.27;;;7.35;;
6832;SDS011;3454;42.654;23.378;2022-08-18T07:21:26;8.43;;;6.63;;
6832;SDS011;3454;42.654;23.378;2022-08-18T07:24:43;12.48;;;7.05;;
6832;SDS011;3454;42.654;23.378;2022-08-18T07:29:31;12.75;;;7.00;;
6832;SDS011;3454;42.654;23.378;2022-08-18T07:32:01;11.55;;;6.57;;
6832;SDS011;3454;42.654;23.378;2022-08-18T07:34:37;10.55;;;6.45;;
6832;SDS011;3454;42.654;23.378;2022-08-18T07:37:17;7.00;;;5.35;;
6832;SDS011;3454;42.654;23.378;2022-08-18T07:45:17;5.88;;;5.30;;
6832;SDS011;3454;42.654;23.378;2022-08-18T07:50:17;10.45;;;6.35;;
6832;SDS011;3454;42.654;23.378;2022-08-18T07:52:48;9.80;;;5.95;;
6832;SDS011;3454;42.654;23.378;2022-08-18T07:55:26;7.35;;;5.80;;
6832;SDS011;3454;42.654;23.378;2022-08-18T07:57:56;7.82;;;5.95;;
6832;SDS011;3454;42.654;23.378;2022-08-18T08:06:04;11.35;;;5.40;;
6832;SDS011;3454;42.654;23.378;2022-08-18T08:08:42;7.60;;;6.07;;
6832;SDS011;3454;42.654;23.378;2022-08-18T08:14:36;8.15;;;5.57;;
6832;SDS011;3454;42.654;23.378;2022-08-18T08:17:24;5.85;;;4.90;;
6832;SDS011;3454;42.654;23.378;2022-08-18T08:28:32;6.38;;;5.03;;
6832;SDS011;3454;42.654;23.378;2022-08-18T08:31:21;9.10;;;5.13;;
6832;SDS011;3454;42.654;23.378;2022-08-18T08:36:52;6.35;;;5.00;;
6832;SDS011;3454;42.654;23.378;2022-08-18T08:42:08;4.68;;;4.00;;
6832;SDS011;3454;42.654;23.378;2022-08-18T08:44:44;6.25;;;4.65;;
6832;SDS011;3454;42.654;23.378;2022-08-18T08:50:02;7.38;;;4.65;;
6832;SDS011;3454;42.654;23.378;2022-08-18T08:55:05;8.35;;;4.00;;
6832;SDS011;3454;42.654;23.378;2022-08-18T08:57:36;5.97;;;4.10;;
6832;SDS011;3454;42.654;23.378;2022-08-18T09:00:19;6.47;;;4.10;;
6832;SDS011;3454;42.654;23.378;2022-08-18T09:05:18;6.60;;;5.03;;
6832;SDS011;3454;42.654;23.378;2022-08-18T09:07:52;5.35;;;4.82;;
6832;SDS011;3454;42.654;23.378;2022-08-18T09:24:20;6.00;;;4.63;;
6832;SDS011;3454;42.654;23.378;2022-08-18T09:26:53;6.32;;;4.55;;
6832;SDS011;3454;42.654;23.378;2022-08-18T09:37:46;4.60;;;4.18;;
6832;SDS011;3454;42.654;23.378;2022-08-18T09:40:33;5.78;;;4.25;;
6832;SDS011;3454;42.654;23.378;2022-08-18T09:43:35;6.85;;;4.43;;
6832;SDS011;3454;42.654;23.378;2022-08-18T09:46:04;5.93;;;3.72;;
6832;SDS011;3454;42.654;23.378;2022-08-18T09:48:34;6.28;;;3.78;;
6832;SDS011;3454;42.654;23.378;2022-08-18T09:56:12;4.88;;;4.03;;
6832;SDS011;3454;42.654;23.378;2022-08-18T09:58:46;8.55;;;4.35;;
6832;SDS011;3454;42.654;23.378;2022-08-18T10:01:17;4.13;;;3.70;;
6832;SDS011;3454;42.654;23.378;2022-08-18T10:06:43;4.90;;;4.25;;
6832;SDS011;3454;42.654;23.378;2022-08-18T10:15:14;4.30;;;3.90;;
6832;SDS011;3454;42.654;23.378;2022-08-18T10:17:27;5.65;;;4.70;;
6832;SDS011;3454;42.654;23.378;2022-08-18T10:23:06;5.63;;;4.25;;
6832;SDS011;3454;42.654;23.378;2022-08-18T10:25:41;6.43;;;3.95;;
6832;SDS011;3454;42.654;23.378;2022-08-18T10:28:10;7.05;;;4.18;;
6832;SDS011;3454;42.654;23.378;2022-08-18T10:31:14;10.48;;;4.30;;
6832;SDS011;3454;42.654;23.378;2022-08-18T10:36:44;4.65;;;4.15;;
6832;SDS011;3454;42.654;23.378;2022-08-18T10:39:18;9.05;;;3.97;;
6832;SDS011;3454;42.654;23.378;2022-08-18T10:41:57;8.15;;;4.78;;
6832;SDS011;3454;42.654;23.378;2022-08-18T10:44:30;5.68;;;4.00;;
6832;SDS011;3454;42.654;23.378;2022-08-18T10:46:59;7.32;;;4.57;;
6832;SDS011;3454;42.654;23.378;2022-08-18T10:49:28;5.35;;;4.28;;
6832;SDS011;3454;42.654;23.378;2022-08-18T11:04:58;4.70;;;3.83;;
6832;SDS011;3454;42.654;23.378;2022-08-18T11:07:30;6.70;;;3.90;;
6832;SDS011;3454;42.654;23.378;2022-08-18T11:09:56;6.00;;;4.03;;
6832;SDS011;3454;42.654;23.378;2022-08-18T11:15:30;5.00;;;3.80;;
6832;SDS011;3454;42.654;23.378;2022-08-18T11:24:09;8.82;;;4.10;;
6832;SDS011;3454;42.654;23.378;2022-08-18T11:26:38;4.90;;;3.50;;
6832;SDS011;3454;42.654;23.378;2022-08-18T11:31:57;6.40;;;3.95;;
6832;SDS011;3454;42.654;23.378;2022-08-18T11:34:31;4.05;;;3.65;;
6832;SDS011;3454;42.654;23.378;2022-08-18T11:37:02;5.68;;;3.38;;
6832;SDS011;3454;42.654;23.378;2022-08-18T11:39:31;4.85;;;3.58;;
6832;SDS011;3454;42.654;23.378;2022-08-18T11:41:57;4.03;;;3.35;;
6832;SDS011;3454;42.654;23.378;2022-08-18T11:44:25;7.53;;;3.42;;
6832;SDS011;3454;42.654;23.378;2022-08-18T11:46:55;6.07;;;3.63;;
6832;SDS011;3454;42.654;23.378;2022-08-18T11:49:35;5.03;;;3.80;;
6832;SDS011;3454;42.654;23.378;2022-08-18T11:52:14;5.95;;;3.60;;
6832;SDS011;3454;42.654;23.378;2022-08-18T11:54:43;4.30;;;4.00;;
6832;SDS011;3454;42.654;23.378;2022-08-18T11:57:26;9.10;;;4.18;;
6832;SDS011;3454;42.654;23.378;2022-08-18T11:59:56;5.00;;;3.65;;
6832;SDS011;3454;42.654;23.378;2022-08-18T12:02:23;4.05;;;3.75;;
6832;SDS011;3454;42.654;23.378;2022-08-18T12:04:54;6.45;;;3.80;;
6832;SDS011;3454;42.654;23.378;2022-08-18T12:07:32;5.32;;;4.18;;
6832;SDS011;3454;42.654;23.378;2022-08-18T12:10:12;4.68;;;4.28;;
6832;SDS011;3454;42.654;23.378;2022-08-18T12:12:44;4.00;;;3.65;;
6832;SDS011;3454;42.654;23.378;2022-08-18T12:17:37;5.35;;;3.80;;
6832;SDS011;3454;42.654;23.378;2022-08-18T12:20:03;4.72;;;3.95;;
6832;SDS011;3454;42.654;23.378;2022-08-18T12:22:36;14.60;;;13.07;;
6832;SDS011;3454;42.654;23.378;2022-08-18T12:25:05;8.20;;;4.55;;
6832;SDS011;3454;42.654;23.378;2022-08-18T12:27:33;4.10;;;3.55;;
6832;SDS011;3454;42.654;23.378;2022-08-18T12:29:59;10.40;;;3.75;;
6832;SDS011;3454;42.654;23.378;2022-08-18T12:32:26;3.90;;;3.60;;
6832;SDS011;3454;42.654;23.378;2022-08-18T12:34:53;7.55;;;3.35;;
6832;SDS011;3454;42.654;23.378;2022-08-18T12:37:20;4.35;;;3.60;;
6832;SDS011;3454;42.654;23.378;2022-08-18T12:39:47;4.13;;;3.72;;
6832;SDS011;3454;42.654;23.378;2022-08-18T12:42:13;6.05;;;3.75;;
6832;SDS011;3454;42.654;23.378;2022-08-18T12:44:38;5.68;;;4.53;;
6832;SDS011;3454;42.654;23.378;2022-08-18T12:47:15;4.40;;;4.00;;
6832;SDS011;3454;42.654;23.378;2022-08-18T12:49:43;4.68;;;3.03;;
6832;SDS011;3454;42.654;23.378;2022-08-18T12:52:09;4.50;;;4.05;;
6832;SDS011;3454;42.654;23.378;2022-08-18T12:54:35;3.92;;;3.53;;
6832;SDS011;3454;42.654;23.378;2022-08-18T12:57:00;4.70;;;3.65;;
6832;SDS011;3454;42.654;23.378;2022-08-18T12:59:27;6.07;;;4.10;;
6832;SDS011;3454;42.654;23.378;2022-08-18T13:01:53;4.93;;;3.70;;
6832;SDS011;3454;42.654;23.378;2022-08-18T13:04:18;4.18;;;3.78;;
6832;SDS011;3454;42.654;23.378;2022-08-18T13:06:51;3.97;;;3.50;;
6832;SDS011;3454;42.654;23.378;2022-08-18T13:09:19;5.50;;;3.80;;
6832;SDS011;3454;42.654;23.378;2022-08-18T13:11:45;5.28;;;3.42;;
6832;SDS011;3454;42.654;23.378;2022-08-18T13:14:11;4.57;;;3.75;;
6832;SDS011;3454;42.654;23.378;2022-08-18T13:16:39;4.45;;;4.05;;
6832;SDS011;3454;42.654;23.378;2022-08-18T13:19:06;4.10;;;3.50;;
6832;SDS011;3454;42.654;23.378;2022-08-18T13:21:33;5.10;;;3.85;;
6832;SDS011;3454;42.654;23.378;2022-08-18T13:23:58;4.35;;;3.60;;
6832;SDS011;3454;42.654;23.378;2022-08-18T13:26:25;6.07;;;3.72;;
6832;SDS011;3454;42.654;23.378;2022-08-18T13:28:56;3.85;;;3.40;;
6832;SDS011;3454;42.654;23.378;2022-08-18T13:31:22;6.07;;;3.42;;
6832;SDS011;3454;42.654;23.378;2022-08-18T13:33:47;5.70;;;4.10;;
6832;SDS011;3454;42.654;23.378;2022-08-18T13:36:14;6.85;;;3.90;;
6832;SDS011;3454;42.654;23.378;2022-08-18T13:38:40;6.97;;;4.00;;
6832;SDS011;3454;42.654;23.378;2022-08-18T13:41:06;4.40;;;4.00;;
6832;SDS011;3454;42.654;23.378;2022-08-18T13:43:36;4.35;;;3.70;;
6832;SDS011;3454;42.654;23.378;2022-08-18T13:46:06;4.43;;;3.60;;
6832;SDS011;3454;42.654;23.378;2022-08-18T13:48:34;4.57;;;3.78;;
6832;SDS011;3454;42.654;23.378;2022-08-18T13:50:59;7.18;;;3.92;;
6832;SDS011;3454;42.654;23.378;2022-08-18T13:53:27;4.70;;;4.10;;
6832;SDS011;3454;42.654;23.378;2022-08-18T13:55:54;5.25;;;3.60;;
6832;SDS011;3454;42.654;23.378;2022-08-18T13:58:22;4.38;;;3.53;;
6832;SDS011;3454;42.654;23.378;2022-08-18T14:00:48;5.03;;;4.32;;
6832;SDS011;3454;42.654;23.378;2022-08-18T14:03:18;4.57;;;4.18;;
6832;SDS011;3454;42.654;23.378;2022-08-18T14:05:47;5.35;;;4.00;;
6832;SDS011;3454;42.654;23.378;2022-08-18T14:08:13;6.97;;;3.78;;
6832;SDS011;3454;42.654;23.378;2022-08-18T14:10:38;4.35;;;3.95;;
6832;SDS011;3454;42.654;23.378;2022-08-18T14:13:04;4.82;;;4.15;;
6832;SDS011;3454;42.654;23.378;2022-08-18T14:15:31;6.30;;;4.15;;
6832;SDS011;3454;42.654;23.378;2022-08-18T14:18:00;4.30;;;3.45;;
6832;SDS011;3454;42.654;23.378;2022-08-18T14:20:25;7.20;;;3.80;;
6832;SDS011;3454;42.654;23.378;2022-08-18T14:23:09;4.68;;;3.58;;
6832;SDS011;3454;42.654;23.378;2022-08-18T14:25:54;6.00;;;3.90;;
6832;SDS011;3454;42.654;23.378;2022-08-18T14:28:37;4.72;;;3.30;;
6832;SDS011;3454;42.654;23.378;2022-08-18T14:31:03;6.97;;;3.40;;
6832;SDS011;3454;42.654;23.378;2022-08-18T14:33:29;4.18;;;3.80;;
6832;SDS011;3454;42.654;23.378;2022-08-18T14:35:55;5.03;;;3.47;;
6832;SDS011;3454;42.654;23.378;2022-08-18T14:38:21;5.50;;;4.00;;
6832;SDS011;3454;42.654;23.378;2022-08-18T14:40:47;4.60;;;4.20;;
6832;SDS011;3454;42.654;23.378;2022-08-18T14:43:14;5.90;;;3.88;;
6832;SDS011;3454;42.654;23.378;2022-08-18T14:45:42;7.68;;;4.55;;
6832;SDS011;3454;42.654;23.378;2022-08-18T14:48:11;7.53;;;3.95;;
6832;SDS011;3454;42.654;23.378;2022-08-18T14:50:38;7.53;;;4.15;;
6832;SDS011;3454;42.654;23.378;2022-08-18T14:53:05;7.03;;;4.00;;
6832;SDS011;3454;42.654;23.378;2022-08-18T14:55:31;3.92;;;3.53;;
6832;SDS011;3454;42.654;23.378;2022-08-18T14:57:56;6.63;;;3.85;;
6832;SDS011;3454;42.654;23.378;2022-08-18T15:00:22;4.82;;;3.42;;
6832;SDS011;3454;42.654;23.378;2022-08-18T15:02:48;4.30;;;3.90;;
6832;SDS011;3454;42.654;23.378;2022-08-18T15:05:14;4.20;;;3.80;;
6832;SDS011;3454;42.654;23.378;2022-08-18T15:07:40;5.85;;;4.43;;
6832;SDS011;3454;42.654;23.378;2022-08-18T15:10:07;7.18;;;3.65;;
6832;SDS011;3454;42.654;23.378;2022-08-18T15:12:34;6.10;;;3.30;;
6832;SDS011;3454;42.654;23.378;2022-08-18T15:15:00;4.15;;;3.85;;
6832;SDS011;3454;42.654;23.378;2022-08-18T15:17:25;6.50;;;4.03;;
6832;SDS011;3454;42.654;23.378;2022-08-18T15:19:52;4.18;;;3.83;;
6832;SDS011;3454;42.654;23.378;2022-08-18T15:22:18;7.30;;;4.03;;
6832;SDS011;3454;42.654;23.378;2022-08-18T15:25:03;5.35;;;3.83;;
6832;SDS011;3454;42.654;23.378;2022-08-18T15:27:48;5.57;;;3.88;;
6832;SDS011;3454;42.654;23.378;2022-08-18T15:30:15;4.75;;;3.80;;
6832;SDS011;3454;42.654;23.378;2022-08-18T15:32:41;4.50;;;4.10;;
6832;SDS011;3454;42.654;23.378;2022-08-18T15:35:09;5.07;;;3.80;;
6832;SDS011;3454;42.654;23.378;2022-08-18T15:37:37;5.05;;;3.60;;
6832;SDS011;3454;42.654;23.378;2022-08-18T15:40:08;4.95;;;4.55;;
6832;SDS011;3454;42.654;23.378;2022-08-18T15:42:45;5.78;;;4.65;;
6832;SDS011;3454;42.654;23.378;2022-08-18T15:45:14;9.63;;;4.72;;
6832;SDS011;3454;42.654;23.378;2022-08-18T15:47:44;6.40;;;4.15;;
6832;SDS011;3454;42.654;23.378;2022-08-18T15:50:10;5.55;;;4.15;;
6832;SDS011;3454;42.654;23.378;2022-08-18T15:52:37;5.95;;;4.75;;
6832;SDS011;3454;42.654;23.378;2022-08-18T15:55:14;6.35;;;4.28;;
6832;SDS011;3454;42.654;23.378;2022-08-18T15:57:43;5.03;;;3.90;;
6832;SDS011;3454;42.654;23.378;2022-08-18T16:00:09;4.43;;;3.83;;
6832;SDS011;3454;42.654;23.378;2022-08-18T16:02:35;4.93;;;4.53;;
6832;SDS011;3454;42.654;23.378;2022-08-18T16:05:03;5.07;;;4.30;;
6832;SDS011;3454;42.654;23.378;2022-08-18T16:07:30;5.00;;;4.50;;
6832;SDS011;3454;42.654;23.378;2022-08-18T16:09:55;5.18;;;3.97;;
6832;SDS011;3454;42.654;23.378;2022-08-18T16:12:20;6.70;;;4.30;;
6832;SDS011;3454;42.654;23.378;2022-08-18T16:14:46;6.15;;;4.55;;
6832;SDS011;3454;42.654;23.378;2022-08-18T16:17:12;5.53;;;4.28;;
6832;SDS011;3454;42.654;23.378;2022-08-18T16:19:38;8.98;;;4.72;;
6832;SDS011;3454;42.654;23.378;2022-08-18T16:22:04;8.57;;;4.60;;
6832;SDS011;3454;42.654;23.378;2022-08-18T16:24:31;4.30;;;3.97;;
6832;SDS011;3454;42.654;23.378;2022-08-18T16:26:57;4.80;;;4.05;;
6832;SDS011;3454;42.654;23.378;2022-08-18T16:29:23;5.70;;;4.10;;
6832;SDS011;3454;42.654;23.378;2022-08-18T16:31:48;7.68;;;4.82;;
6832;SDS011;3454;42.654;23.378;2022-08-18T16:34:15;9.88;;;4.57;;
6832;SDS011;3454;42.654;23.378;2022-08-18T16:36:41;5.22;;;4.70;;
6832;SDS011;3454;42.654;23.378;2022-08-18T16:39:06;7.65;;;5.20;;
6832;SDS011;3454;42.654;23.378;2022-08-18T16:41:32;6.53;;;4.95;;
6832;SDS011;3454;42.654;23.378;2022-08-18T16:43:57;5.85;;;5.22;;
6832;SDS011;3454;42.654;23.378;2022-08-18T16:46:25;5.45;;;4.93;;
6832;SDS011;3454;42.654;23.378;2022-08-18T16:48:52;8.68;;;4.93;;
6832;SDS011;3454;42.654;23.378;2022-08-18T16:51:19;7.65;;;5.47;;
6832;SDS011;3454;42.654;23.378;2022-08-18T16:53:48;7.82;;;4.85;;
6832;SDS011;3454;42.654;23.378;2022-08-18T16:56:17;5.45;;;4.93;;
6832;SDS011;3454;42.654;23.378;2022-08-18T16:58:46;10.43;;;4.88;;
6832;SDS011;3454;42.654;23.378;2022-08-18T17:01:31;4.90;;;4.40;;
6832;SDS011;3454;42.654;23.378;2022-08-18T17:04:17;6.13;;;4.90;;
6832;SDS011;3454;42.654;23.378;2022-08-18T17:06:46;7.22;;;4.78;;
6832;SDS011;3454;42.654;23.378;2022-08-18T17:09:19;6.28;;;4.22;;
6832;SDS011;3454;42.654;23.378;2022-08-18T17:11:46;5.47;;;4.85;;
6832;SDS011;3454;42.654;23.378;2022-08-18T17:14:13;8.55;;;5.00;;
6832;SDS011;3454;42.654;23.378;2022-08-18T17:16:39;5.63;;;5.13;;
6832;SDS011;3454;42.654;23.378;2022-08-18T17:19:05;8.25;;;5.32;;
6832;SDS011;3454;42.654;23.378;2022-08-18T17:21:33;8.23;;;5.03;;
6832;SDS011;3454;42.654;23.378;2022-08-18T17:24:00;7.30;;;5.03;;
6832;SDS011;3454;42.654;23.378;2022-08-18T17:26:41;7.55;;;4.70;;
6832;SDS011;3454;42.654;23.378;2022-08-18T17:31:59;8.07;;;5.18;;
6832;SDS011;3454;42.654;23.378;2022-08-18T17:34:32;7.93;;;5.20;;
6832;SDS011;3454;42.654;23.378;2022-08-18T17:37:00;8.73;;;5.45;;
6832;SDS011;3454;42.654;23.378;2022-08-18T17:39:30;6.30;;;4.97;;
6832;SDS011;3454;42.654;23.378;2022-08-18T17:42:00;6.85;;;4.95;;
6832;SDS011;3454;42.654;23.378;2022-08-18T17:44:45;9.00;;;6.40;;
6832;SDS011;3454;42.654;23.378;2022-08-18T17:47:21;7.05;;;4.78;;
6832;SDS011;3454;42.654;23.378;2022-08-18T17:49:50;6.28;;;5.50;;
6832;SDS011;3454;42.654;23.378;2022-08-18T17:52:37;9.52;;;4.88;;